createdAt,value
2023-04-07T00:01:39.838Z,9.40
2023-04-07T00:04:50.473Z,9.50
2023-04-07T00:07:24.068Z,9.40
2023-04-07T00:09:52.771Z,9.40
2023-04-07T00:12:39.508Z,9.30
2023-04-07T00:15:38.716Z,9.30
2023-04-07T00:18:16.122Z,9.30
2023-04-07T00:20:46.117Z,9.30
2023-04-07T00:23:24.719Z,9.40
2023-04-07T00:25:53.209Z,9.40
2023-04-07T00:28:21.668Z,9.40
2023-04-07T00:30:50.414Z,9.40
2023-04-07T00:33:19.677Z,9.50
2023-04-07T00:35:48.292Z,9.50
2023-04-07T00:38:17.601Z,9.40
2023-04-07T00:41:01.476Z,9.40
2023-04-07T00:43:30.487Z,9.40
2023-04-07T00:46:00.057Z,9.50
2023-04-07T00:48:53.432Z,9.40
2023-04-07T00:51:23.690Z,9.50
2023-04-07T00:53:56.883Z,9.40
2023-04-07T00:56:31.100Z,9.50
2023-04-07T00:58:59.617Z,9.40
2023-04-07T01:01:32.475Z,9.40
2023-04-07T01:04:16.255Z,9.40
2023-04-07T01:06:52.004Z,9.30
2023-04-07T01:09:26.959Z,9.30
2023-04-07T01:12:18.107Z,9.30
2023-04-07T01:14:53.420Z,9.40
2023-04-07T01:17:27.276Z,9.40
2023-04-07T01:20:08.496Z,9.30
2023-04-07T01:22:43.168Z,9.30
2023-04-07T01:25:30.830Z,9.30
2023-04-07T01:28:23.339Z,9.30
2023-04-07T01:30:56.638Z,9.30
2023-04-07T01:33:28.456Z,9.30
2023-04-07T01:35:59.946Z,9.30
2023-04-07T01:55:27.137Z,9.30
2023-04-07T01:57:55.444Z,9.40
2023-04-07T02:00:23.590Z,9.30
2023-04-07T02:03:00.945Z,9.40
2023-04-07T02:05:31.530Z,9.40
2023-04-07T02:08:03.963Z,9.30
2023-04-07T02:10:38.429Z,9.40
2023-04-07T02:13:09.246Z,9.40
2023-04-07T02:15:38.639Z,9.30
2023-04-07T02:18:13.252Z,9.40
2023-04-07T02:20:42.371Z,9.40
2023-04-07T02:23:10.849Z,9.40
2023-04-07T02:25:40.543Z,9.30
2023-04-07T02:28:08.826Z,9.30
2023-04-07T02:30:37.595Z,9.30
2023-04-07T02:33:06.355Z,9.30
2023-04-07T02:35:34.426Z,9.30
2023-04-07T02:38:05.012Z,9.30
2023-04-07T02:40:33.311Z,9.30
2023-04-07T02:43:02.946Z,9.30
2023-04-07T02:45:31.015Z,9.20
2023-04-07T02:47:59.524Z,9.20
2023-04-07T02:50:29.167Z,9.10
2023-04-07T02:52:57.446Z,9.20
2023-04-07T02:55:25.786Z,9.20
2023-04-07T02:57:53.974Z,9.20
2023-04-07T03:00:23.661Z,9.20
2023-04-07T03:02:52.131Z,9.20
2023-04-07T03:05:20.755Z,9.20
2023-04-07T03:07:49.043Z,9.30
2023-04-07T03:10:17.464Z,9.30
2023-04-07T03:12:46.041Z,9.30
2023-04-07T03:15:15.201Z,9.20
2023-04-07T03:17:46.204Z,9.10
2023-04-07T03:20:17.614Z,9.10
2023-04-07T03:22:47.610Z,9.10
2023-04-07T03:25:15.757Z,9.10
2023-04-07T03:27:43.891Z,9.10
2023-04-07T03:30:13.107Z,9.10
2023-04-07T03:32:41.646Z,9.10
2023-04-07T03:35:12.187Z,9.10
2023-04-07T03:37:40.373Z,9.10
2023-04-07T03:40:09.593Z,9.00
2023-04-07T03:42:38.174Z,9.00
2023-04-07T03:45:07.516Z,8.90
2023-04-07T03:47:35.702Z,8.90
2023-04-07T03:50:04.004Z,8.90
2023-04-07T03:52:33.642Z,8.90
2023-04-07T03:55:01.776Z,8.90
2023-04-07T03:57:29.932Z,8.90
2023-04-07T03:59:58.194Z,8.90
2023-04-07T04:02:26.562Z,8.90
2023-04-07T04:04:54.866Z,8.90
2023-04-07T04:07:23.573Z,8.90
2023-04-07T04:09:53.142Z,8.90
2023-04-07T04:12:21.684Z,8.90
2023-04-07T04:14:49.992Z,8.90
2023-04-07T04:17:18.156Z,8.90
2023-04-07T04:19:46.371Z,8.90
2023-04-07T04:22:14.718Z,8.90
2023-04-07T04:24:42.926Z,9.00
2023-04-07T04:27:12.518Z,8.90
2023-04-07T04:29:41.039Z,8.90
2023-04-07T04:32:09.116Z,8.90
2023-04-07T04:34:37.430Z,8.90
2023-04-07T04:37:05.742Z,8.90
2023-04-07T04:39:33.881Z,8.80
2023-04-07T04:42:02.306Z,8.80
2023-04-07T04:44:32.133Z,8.80
2023-04-07T04:47:03.584Z,8.80
2023-04-07T04:49:32.213Z,8.80
2023-04-07T04:52:00.761Z,8.70
2023-04-07T04:54:29.389Z,8.70
2023-04-07T04:56:57.721Z,8.70
2023-04-07T04:59:27.114Z,8.70
2023-04-07T05:01:56.671Z,8.70
2023-04-07T05:04:25.086Z,8.60
2023-04-07T05:06:53.502Z,8.60
2023-04-07T05:09:21.630Z,8.60
2023-04-07T05:11:49.871Z,8.60
2023-04-07T05:14:18.215Z,8.60
2023-04-07T05:16:46.323Z,8.50
2023-04-07T05:19:16.046Z,8.50
2023-04-07T05:21:44.683Z,8.50
2023-04-07T05:24:12.833Z,8.40
2023-04-07T05:26:41.178Z,8.40
2023-04-07T05:29:09.791Z,8.30
2023-04-07T05:31:37.942Z,8.30
2023-04-07T05:34:06.099Z,8.30
2023-04-07T05:36:37.109Z,8.40
2023-04-07T05:39:05.645Z,8.40
2023-04-07T05:41:33.771Z,8.50
2023-04-07T05:44:02.046Z,8.50
2023-04-07T05:46:30.349Z,8.50
2023-04-07T05:49:00.727Z,8.60
2023-04-07T05:51:33.287Z,8.70
2023-04-07T05:54:04.713Z,9.00
2023-04-07T05:56:32.944Z,9.60
2023-04-07T05:59:01.977Z,10.10
2023-04-07T06:01:31.041Z,10.60
2023-04-07T06:03:59.794Z,11.20
2023-04-07T06:06:28.701Z,11.60
2023-04-07T06:08:56.915Z,12.00
2023-04-07T06:11:27.567Z,12.20
2023-04-07T06:13:55.939Z,12.50
2023-04-07T06:16:24.135Z,12.70
2023-04-07T06:18:52.425Z,13.00
2023-04-07T06:21:20.944Z,13.20
2023-04-07T06:23:49.389Z,13.20
2023-04-07T06:26:17.848Z,13.00
2023-04-07T06:28:47.788Z,12.70
2023-04-07T06:31:16.728Z,12.40
2023-04-07T06:33:45.020Z,12.20
2023-04-07T06:36:13.714Z,12.00
2023-04-07T06:38:41.916Z,11.80
2023-04-07T06:41:13.494Z,11.60
2023-04-07T06:43:41.890Z,11.40
2023-04-07T06:46:11.623Z,11.30
2023-04-07T06:48:39.809Z,11.40
2023-04-07T06:51:08.134Z,11.50
2023-04-07T06:53:36.486Z,11.50
2023-04-07T06:56:06.205Z,11.90
2023-04-07T06:58:34.679Z,12.20
2023-04-07T07:01:03.922Z,12.60
2023-04-07T07:03:34.493Z,13.10
2023-04-07T07:06:03.433Z,13.50
2023-04-07T07:08:31.649Z,13.70
2023-04-07T07:10:59.992Z,13.60
2023-04-07T07:13:28.512Z,13.40
2023-04-07T07:15:56.976Z,13.20
2023-04-07T07:18:25.479Z,12.90
2023-04-07T07:20:54.992Z,12.60
2023-04-07T07:23:23.112Z,12.50
2023-04-07T07:25:51.852Z,12.10
2023-04-07T07:28:21.729Z,11.80
2023-04-07T07:30:50.033Z,11.60
2023-04-07T07:33:18.790Z,11.60
2023-04-07T07:35:47.174Z,11.50
2023-04-07T07:38:16.703Z,11.50
2023-04-07T07:40:45.235Z,11.40
2023-04-07T07:43:13.361Z,11.40
2023-04-07T07:45:41.611Z,11.50
2023-04-07T07:48:10.058Z,11.40
2023-04-07T07:50:38.248Z,11.20
2023-04-07T07:53:06.399Z,11.20
2023-04-07T07:55:36.195Z,11.10
2023-04-07T07:58:04.425Z,11.20
2023-04-07T08:00:32.601Z,11.20
2023-04-07T08:03:01.452Z,11.00
2023-04-07T08:05:29.654Z,10.90
2023-04-07T08:07:57.742Z,10.70
2023-04-07T08:10:26.350Z,10.80
2023-04-07T08:12:55.902Z,10.90
2023-04-07T08:15:24.059Z,10.80
2023-04-07T08:17:54.608Z,10.80
2023-04-07T08:20:24.054Z,10.70
2023-04-07T08:22:52.391Z,10.70
2023-04-07T08:25:21.077Z,10.70
2023-04-07T08:27:49.436Z,10.60
2023-04-07T08:30:21.111Z,10.60
2023-04-07T08:32:50.817Z,10.70
2023-04-07T08:35:19.015Z,10.90
2023-04-07T08:37:47.518Z,11.00
2023-04-07T08:40:16.398Z,11.10
2023-04-07T08:42:48.460Z,11.30
2023-04-07T08:45:20.130Z,11.30
2023-04-07T08:47:50.987Z,11.40
2023-04-07T08:50:20.971Z,11.50
2023-04-07T08:52:54.712Z,11.80
2023-04-07T08:55:23.471Z,12.20
2023-04-07T08:57:52.546Z,12.60
2023-04-07T09:00:22.920Z,13.00
2023-04-07T09:02:52.484Z,13.50
2023-04-07T09:05:21.508Z,13.90
2023-04-07T09:07:49.808Z,14.20
2023-04-07T09:10:18.506Z,14.40
2023-04-07T09:12:46.706Z,14.60
2023-04-07T09:15:15.012Z,14.80
2023-04-07T09:17:44.944Z,14.90
2023-04-07T09:20:13.189Z,14.90
2023-04-07T09:22:43.847Z,15.00
2023-04-07T09:25:17.487Z,15.00
2023-04-07T09:27:58.036Z,14.90
2023-04-07T09:30:27.068Z,14.70
2023-04-07T09:32:57.258Z,14.30
2023-04-07T09:35:28.852Z,14.00
2023-04-07T09:38:04.833Z,13.90
2023-04-07T09:40:33.730Z,13.90
2023-04-07T09:43:02.752Z,13.80
2023-04-07T09:45:36.278Z,13.90
2023-04-07T09:48:20.680Z,14.00
2023-04-07T09:50:51.613Z,14.20
2023-04-07T09:53:20.295Z,14.40
2023-04-07T09:55:49.939Z,14.60
2023-04-07T09:58:18.742Z,14.70
2023-04-07T10:00:47.245Z,14.70
2023-04-07T10:03:17.279Z,14.60
2023-04-07T10:05:47.042Z,14.30
2023-04-07T10:08:15.757Z,14.30
2023-04-07T10:10:45.310Z,14.30
2023-04-07T10:13:14.410Z,14.60
2023-04-07T10:15:42.846Z,15.00
2023-04-07T10:18:11.740Z,15.10
2023-04-07T10:20:42.813Z,15.10
2023-04-07T10:23:18.876Z,14.70
2023-04-07T10:25:48.912Z,14.50
2023-04-07T10:28:18.505Z,14.30
2023-04-07T10:30:49.106Z,14.20
2023-04-07T10:33:18.570Z,14.10
2023-04-07T10:36:07.239Z,14.10
2023-04-07T10:38:36.405Z,13.70
2023-04-07T10:41:33.731Z,13.20
2023-04-07T10:44:02.961Z,12.90
2023-04-07T10:47:06.464Z,12.70
2023-04-07T10:49:35.234Z,12.60
2023-04-07T10:52:26.349Z,12.40
2023-04-07T10:55:27.591Z,12.40
2023-04-07T10:58:17.786Z,12.50
2023-04-07T11:01:19.531Z,12.70
2023-04-07T11:04:04.912Z,12.90
2023-04-07T11:06:33.160Z,13.10
2023-04-07T11:09:03.304Z,12.90
2023-04-07T11:11:40.898Z,12.90
2023-04-07T11:14:09.317Z,12.90
2023-04-07T11:16:39.833Z,13.00
2023-04-07T11:19:08.385Z,12.90
2023-04-07T11:21:37.747Z,12.80
2023-04-07T11:24:07.581Z,12.90
2023-04-07T11:26:40.529Z,13.10
2023-04-07T11:29:09.515Z,13.10
2023-04-07T11:31:37.968Z,13.10
2023-04-07T11:34:07.455Z,13.00
2023-04-07T11:36:37.036Z,12.80
2023-04-07T11:39:07.314Z,12.80
2023-04-07T11:41:47.055Z,12.90
2023-04-07T11:44:15.593Z,13.00
2023-04-07T11:46:54.958Z,13.30
2023-04-07T11:49:25.074Z,13.40
2023-04-07T11:52:01.104Z,13.50
2023-04-07T11:54:41.532Z,13.50
2023-04-07T11:57:12.843Z,13.50
2023-04-07T11:59:42.330Z,13.60
2023-04-07T12:02:10.725Z,13.70
2023-04-07T12:04:41.182Z,13.70
2023-04-07T12:07:10.603Z,13.80
2023-04-07T12:09:41.026Z,13.80
2023-04-07T12:12:11.039Z,13.80
2023-04-07T12:14:39.289Z,14.50
2023-04-07T12:17:09.454Z,15.00
2023-04-07T12:19:39.803Z,15.30
2023-04-07T12:22:08.713Z,15.20
2023-04-07T12:24:39.561Z,14.70
2023-04-07T12:27:10.164Z,14.60
2023-04-07T12:29:38.454Z,14.20
2023-04-07T12:32:06.842Z,14.00
2023-04-07T12:34:37.516Z,13.70
2023-04-07T12:37:06.185Z,13.30
2023-04-07T12:39:35.145Z,13.00
2023-04-07T12:42:03.566Z,12.70
2023-04-07T12:44:33.150Z,12.70
2023-04-07T12:47:04.078Z,12.60
2023-04-07T12:49:32.554Z,12.40
2023-04-07T12:52:00.759Z,12.10
2023-04-07T12:54:29.123Z,12.30
2023-04-07T12:56:58.685Z,12.30
2023-04-07T12:59:27.003Z,12.40
2023-04-07T13:01:57.008Z,12.20
2023-04-07T13:04:27.033Z,12.30
2023-04-07T13:06:55.441Z,12.10
2023-04-07T13:09:23.712Z,12.00
2023-04-07T13:11:51.981Z,11.90
2023-04-07T13:14:20.148Z,11.90
2023-04-07T13:16:49.081Z,11.80
2023-04-07T13:19:18.815Z,11.90
2023-04-07T13:21:48.131Z,11.80
2023-04-07T13:24:17.139Z,11.80
2023-04-07T13:26:45.400Z,11.60
2023-04-07T13:29:13.516Z,11.60
2023-04-07T13:31:41.794Z,11.70
2023-04-07T13:34:10.159Z,11.80
2023-04-07T13:36:39.684Z,11.90
2023-04-07T13:39:09.148Z,12.10
2023-04-07T13:41:37.376Z,12.30
2023-04-07T13:44:05.471Z,12.50
2023-04-07T13:46:33.830Z,12.80
2023-04-07T13:49:02.308Z,13.00
2023-04-07T13:51:30.506Z,13.20
2023-04-07T13:54:00.506Z,13.50
2023-04-07T13:56:28.770Z,13.70
2023-04-07T13:58:56.962Z,13.70
2023-04-07T14:01:25.493Z,13.90
2023-04-07T14:03:54.468Z,13.80
2023-04-07T14:06:23.001Z,13.80
2023-04-07T14:08:52.042Z,13.80
2023-04-07T14:11:22.841Z,13.90
2023-04-07T14:13:52.092Z,13.90
2023-04-07T14:16:20.536Z,13.90
2023-04-07T14:18:49.471Z,14.10
2023-04-07T14:21:17.747Z,14.20
2023-04-07T14:23:46.008Z,14.40
2023-04-07T14:26:14.838Z,14.40
2023-04-07T14:28:44.436Z,14.30
2023-04-07T14:31:16.979Z,14.20
2023-04-07T14:33:45.759Z,14.20
2023-04-07T14:36:15.985Z,14.00
2023-04-07T14:38:44.905Z,13.70
2023-04-07T14:41:13.242Z,13.70
2023-04-07T14:43:43.565Z,13.50
2023-04-07T14:46:12.633Z,13.30
2023-04-07T14:48:40.798Z,12.70
2023-04-07T14:51:14.113Z,12.80
2023-04-07T14:53:43.420Z,12.70
2023-04-07T14:56:11.727Z,12.50
2023-04-07T14:58:40.859Z,12.40
2023-04-07T15:01:10.457Z,12.40
2023-04-07T15:03:39.391Z,12.40
2023-04-07T15:06:13.773Z,12.40
2023-04-07T15:08:42.061Z,12.20
2023-04-07T15:11:10.668Z,12.10
2023-04-07T15:13:39.433Z,12.10
2023-04-07T15:16:10.600Z,12.00
2023-04-07T15:18:41.414Z,12.10
2023-04-07T15:21:10.089Z,12.00
2023-04-07T15:23:39.039Z,11.90
2023-04-07T15:26:07.845Z,11.90
2023-04-07T15:28:36.121Z,11.80
2023-04-07T15:31:08.390Z,11.50
2023-04-07T15:33:39.251Z,11.50
2023-04-07T15:36:08.457Z,11.50
2023-04-07T15:38:38.806Z,11.40
2023-04-07T15:41:07.534Z,11.30
2023-04-07T15:43:37.649Z,11.20
2023-04-07T15:46:06.398Z,11.20
2023-04-07T15:48:34.932Z,11.20
2023-04-07T15:51:04.489Z,11.40
2023-04-07T15:53:32.868Z,11.50
2023-04-07T15:56:01.695Z,11.30
2023-04-07T15:58:30.080Z,11.10
2023-04-07T16:00:58.652Z,10.90
2023-04-07T16:03:28.495Z,10.70
2023-04-07T16:05:56.796Z,10.80
2023-04-07T16:08:26.397Z,10.70
2023-04-07T16:10:55.131Z,10.60
2023-04-07T16:13:23.253Z,10.30
2023-04-07T16:15:51.390Z,10.40
2023-04-07T16:18:20.055Z,10.30
2023-04-07T16:20:48.276Z,10.40
2023-04-07T16:23:16.496Z,10.30
2023-04-07T16:25:46.430Z,10.40
2023-04-07T16:28:14.617Z,10.30
2023-04-07T16:30:43.746Z,10.20
2023-04-07T16:33:13.170Z,10.20
2023-04-07T16:35:41.528Z,10.20
2023-04-07T16:38:09.623Z,10.30
2023-04-07T16:40:38.298Z,10.40
2023-04-07T16:43:09.100Z,10.50
2023-04-07T16:45:37.227Z,10.60
2023-04-07T16:48:05.661Z,10.50
2023-04-07T16:50:34.064Z,10.60
2023-04-07T16:53:02.615Z,10.50
2023-04-07T16:55:30.888Z,10.60
2023-04-07T16:57:59.002Z,10.80
2023-04-07T17:00:28.565Z,10.80
2023-04-07T17:02:57.091Z,10.70
2023-04-07T17:05:25.571Z,10.70
2023-04-07T17:07:54.706Z,10.60
2023-04-07T17:10:24.472Z,10.40
2023-04-07T17:12:56.107Z,10.40
2023-04-07T17:15:24.432Z,10.40
2023-04-07T17:17:54.741Z,10.30
2023-04-07T17:20:23.551Z,10.40
2023-04-07T17:22:51.653Z,10.30
2023-04-07T17:25:20.446Z,10.30
2023-04-07T17:27:49.130Z,10.30
2023-04-07T17:30:18.245Z,10.30
2023-04-07T17:32:46.779Z,10.30
2023-04-07T17:35:17.212Z,10.30
2023-04-07T17:37:46.024Z,10.30
2023-04-07T17:40:14.549Z,10.40
2023-04-07T17:42:43.036Z,10.40
2023-04-07T17:45:11.856Z,10.40
2023-04-07T17:47:40.522Z,10.40
2023-04-07T17:50:09.727Z,10.50
2023-04-07T17:52:39.353Z,10.40
2023-04-07T17:55:09.216Z,10.30
2023-04-07T17:57:38.527Z,10.30
2023-04-07T18:00:07.940Z,10.30
2023-04-07T18:02:36.627Z,10.30
2023-04-07T18:05:07.620Z,10.40
2023-04-07T18:07:35.814Z,10.30
2023-04-07T18:10:06.342Z,10.30
2023-04-07T18:12:34.479Z,10.30
2023-04-07T18:15:02.652Z,10.20
2023-04-07T18:17:31.409Z,10.20
2023-04-07T18:19:59.596Z,10.30
2023-04-07T18:22:28.110Z,10.30
2023-04-07T18:24:56.764Z,10.20
2023-04-07T18:27:28.423Z,10.10
2023-04-07T18:29:57.393Z,10.10
2023-04-07T18:32:25.744Z,10.10
2023-04-07T18:34:54.948Z,10.00
2023-04-07T18:37:23.428Z,10.10
2023-04-07T18:39:52.213Z,10.10
2023-04-07T18:42:20.493Z,10.00
2023-04-07T18:44:50.372Z,10.00
2023-04-07T18:47:18.667Z,9.90
2023-04-07T18:49:47.174Z,9.90
2023-04-07T18:52:15.610Z,9.90
2023-04-07T18:54:43.813Z,9.90
2023-04-07T18:57:12.706Z,9.90
2023-04-07T18:59:41.172Z,9.80
2023-04-07T19:02:10.830Z,9.80
2023-04-07T19:04:39.141Z,9.80
2023-04-07T19:07:07.872Z,9.70
2023-04-07T19:09:37.831Z,9.70
2023-04-07T19:12:06.151Z,9.70
2023-04-07T19:14:34.838Z,9.70
2023-04-07T19:17:03.565Z,9.70
2023-04-07T19:19:33.483Z,9.80
2023-04-07T19:22:02.077Z,9.70
2023-04-07T19:24:30.371Z,9.70
2023-04-07T19:26:58.550Z,9.80
2023-04-07T19:29:27.402Z,9.70
2023-04-07T19:31:57.212Z,9.80
2023-04-07T19:34:25.579Z,9.70
2023-04-07T19:36:55.786Z,9.60
2023-04-07T19:39:23.972Z,9.50
2023-04-07T19:41:52.539Z,9.50
2023-04-07T19:44:21.321Z,9.50
2023-04-07T19:46:49.778Z,9.60
2023-04-07T19:49:17.863Z,9.60
2023-04-07T19:51:46.367Z,9.50
2023-04-07T19:54:16.050Z,9.60
2023-04-07T19:56:44.232Z,9.60
2023-04-07T19:59:12.860Z,9.50
2023-04-07T20:01:41.188Z,9.60
2023-04-07T20:04:09.460Z,9.60
2023-04-07T20:06:40.185Z,9.50
2023-04-07T20:09:08.327Z,9.60
2023-04-07T20:11:38.085Z,9.60
2023-04-07T20:14:06.368Z,9.60
2023-04-07T20:16:34.525Z,9.60
2023-04-07T20:19:04.279Z,9.60
2023-04-07T20:21:33.676Z,9.70
2023-04-07T20:24:01.877Z,9.70
2023-04-07T20:26:30.174Z,9.70
2023-04-07T20:28:59.908Z,9.80
2023-04-07T20:31:28.422Z,9.70
2023-04-07T20:33:57.057Z,9.70
2023-04-07T20:36:26.173Z,9.70
2023-04-07T20:38:56.013Z,9.70
2023-04-07T20:41:24.404Z,9.60
2023-04-07T20:43:54.844Z,9.70
2023-04-07T20:46:24.495Z,9.70
2023-04-07T20:48:52.780Z,9.70
2023-04-07T20:51:21.244Z,9.70
2023-04-07T20:53:49.388Z,9.70
2023-04-07T20:56:17.671Z,9.70
2023-04-07T20:58:46.699Z,9.70
2023-04-07T21:01:14.858Z,9.70
2023-04-07T21:03:44.746Z,9.80
2023-04-07T21:06:13.152Z,9.80
2023-04-07T21:08:41.332Z,9.80
2023-04-07T21:11:09.554Z,9.70
2023-04-07T21:13:37.772Z,9.70
2023-04-07T21:16:06.243Z,9.70
2023-04-07T21:18:34.748Z,9.70
2023-04-07T21:21:04.744Z,9.70
2023-04-07T21:23:32.854Z,9.70
2023-04-07T21:26:04.704Z,9.70
2023-04-07T21:28:33.092Z,9.70
2023-04-07T21:31:01.520Z,9.70
2023-04-07T21:33:29.786Z,9.70
2023-04-07T21:35:58.656Z,9.60
2023-04-07T21:38:28.162Z,9.50
2023-04-07T21:40:57.609Z,9.60
2023-04-07T21:43:28.909Z,9.60
2023-04-07T21:45:57.312Z,9.50
2023-04-07T21:48:25.454Z,9.40
2023-04-07T21:50:53.684Z,9.50
2023-04-07T21:53:21.813Z,9.50
2023-04-07T21:55:52.003Z,9.50
2023-04-07T21:58:20.248Z,9.60
2023-04-07T22:00:48.803Z,9.60
2023-04-07T22:03:17.773Z,9.60
2023-04-07T22:05:46.834Z,9.50
2023-04-07T22:08:15.056Z,9.60
2023-04-07T22:10:43.188Z,9.50
2023-04-07T22:13:12.905Z,9.60
2023-04-07T22:15:41.260Z,9.60
2023-04-07T22:18:09.407Z,9.60
2023-04-07T22:20:37.618Z,9.60
2023-04-07T22:23:05.847Z,9.50
2023-04-07T22:25:33.984Z,9.60
2023-04-07T22:28:02.258Z,9.50
2023-04-07T22:30:32.013Z,9.50
2023-04-07T22:33:00.545Z,9.60
2023-04-07T22:35:28.943Z,9.60
2023-04-07T22:37:57.241Z,9.60
2023-04-07T22:40:25.975Z,9.60
2023-04-07T22:42:54.455Z,9.60
2023-04-07T22:45:22.566Z,9.60
2023-04-07T22:47:52.849Z,9.60
2023-04-07T22:50:21.544Z,9.60
2023-04-07T22:52:49.771Z,9.70
2023-04-07T22:55:18.476Z,9.60
2023-04-07T22:57:46.802Z,9.60
2023-04-07T23:00:15.499Z,9.60
2023-04-07T23:02:44.042Z,9.60
2023-04-07T23:05:13.846Z,9.60
2023-04-07T23:07:42.045Z,9.60
2023-04-07T23:10:10.565Z,9.60
2023-04-07T23:12:39.175Z,9.60
2023-04-07T23:15:08.314Z,9.60
2023-04-07T23:17:36.901Z,9.60
2023-04-07T23:20:05.541Z,9.70
2023-04-07T23:22:35.003Z,9.70
2023-04-07T23:25:03.220Z,9.70
2023-04-07T23:27:31.436Z,9.60
2023-04-07T23:29:59.652Z,9.50
2023-04-07T23:32:27.851Z,9.60
2023-04-07T23:34:56.311Z,9.60
2023-04-07T23:37:24.418Z,9.50
2023-04-07T23:39:54.310Z,9.40
2023-04-07T23:42:22.553Z,9.40
2023-04-07T23:44:50.727Z,9.40
2023-04-07T23:47:19.377Z,9.40
2023-04-07T23:49:47.570Z,9.40
2023-04-07T23:52:16.390Z,9.50
2023-04-07T23:54:44.980Z,9.40
2023-04-07T23:57:14.645Z,9.50
2023-04-07T23:59:42.744Z,9.30
